Flight Track Log - Related Links

Times and Time Zones

All times are in EDT time to prevent confusion due to time zone crossing. See the SWA561 flight status page for this flight to view local times or setup timezone preferences in your user account.

Time Position Orientation Groundspeed Altitude Reporting Facility
EDT Latitude Longitude Course Direction KTS MPH feet Rate Location/Type
Wed 09:56:56 PM 33.8686 -118.5039 195° South 237 273 5,600  Level Los Angeles Center
Wed 09:58:10 PM 33.8011 -118.5100 184° South 262 302 8,900 3,353 Climbing Los Angeles Center
Wed 09:59:12 PM 33.7056 -118.5042 177° South 303 349 13,200 3,951 Climbing Los Angeles Center
Wed 10:00:13 PM 33.6594 -118.3956 117° Southeast 321 369 17,000 3,366 Climbing Los Angeles Center
Wed 10:01:00 PM 33.6333 -118.3352 90° East  Level FlightAware Approximate
Wed 10:01:15 PM 33.6433 -118.2833 100° East 354 407 20,100  Level Los Angeles Center
Wed 10:02:17 PM 33.6319 -118.1633 96° East 368 423 22,800 2,419 Climbing Los Angeles Center
Wed 10:03:19 PM 33.6192 -118.0356 97° East 386 444 25,100 2,341 Climbing Los Angeles Center
Wed 10:04:20 PM 33.6025 -117.8708 97° East 414 476 27,600 2,098 Climbing Los Angeles Center
Wed 10:05:22 PM 33.5872 -117.7286 97° East 430 495 29,400 1,694 Climbing Los Angeles Center
Wed 10:06:24 PM 33.5722 -117.5808 97° East 443 510 31,100 1,694 Climbing Los Angeles Center
Wed 10:07:26 PM 33.5556 -117.4292 97° East 458 527 32,900 1,902 Climbing Los Angeles Center
Wed 10:08:27 PM 33.5403 -117.2781 97° East 458 527 35,000 1,902 Climbing Los Angeles Center
Wed 10:09:29 PM 33.5211 -117.1114 98° East 446 513 36,800 1,235 Climbing Los Angeles Center
Wed 10:10:43 PM 33.5056 -116.9617 97° East 451 519 37,800 926 Climbing Los Angeles Center
Wed 10:11:45 PM 33.4850 -116.7789 98° East 459 528 38,900 585 Climbing Los Angeles Center
Wed 10:12:46 PM 33.4678 -116.6217 97° East 472 543 39,000 49 Climbing Los Angeles Center
Wed 10:13:48 PM 33.4506 -116.4647 97° East 473 544 39,000  Level Los Angeles Center
Wed 10:14:50 PM 33.4331 -116.3094 98° East 470 541 39,000  Level Los Angeles Center
Wed 10:15:52 PM 33.4139 -116.1539 98° East 471 542 39,000  Level Los Angeles Center
Wed 10:16:53 PM 33.3947 -115.9997 98° East 467 537 39,000  Level Los Angeles Center
Wed 10:17:55 PM 33.3722 -115.8153 98° East 466 536 39,000  Level Los Angeles Center
Wed 10:18:57 PM 33.3542 -115.6600 98° East 470 541 39,000  Level Los Angeles Center
Wed 10:19:58 PM 33.3342 -115.5044 99° East 473 544 39,000  Level Los Angeles Center
Wed 10:21:00 PM 33.3150 -115.3494 98° East 471 542 39,000  Level Los Angeles Center
Wed 10:22:02 PM 33.2964 -115.1958 98° East 471 542 39,000  Level Los Angeles Center
Wed 10:23:03 PM 33.2817 -115.0725 98° East 468 539 39,000  Level Los Angeles Center
Wed 10:24:05 PM 33.2619 -114.9186 99° East 470 541 39,000  Level Los Angeles Center
Wed 10:25:07 PM 33.2367 -114.7342 99° East 470 541 39,000  Level Los Angeles Center
Wed 10:26:09 PM 33.2133 -114.5519 99° East 463 533 39,000  Level Los Angeles Center
Wed 10:27:10 PM 33.1950 -114.4017 98° East 458 527 39,000  Level Los Angeles Center
Wed 10:28:12 PM 33.1744 -114.2511 99° East 460 529 39,000  Level Los Angeles Center
Wed 10:29:19 PM 33.1550 -114.0825 98° East 466 536 39,000  Level Albuquerque Center
Wed 10:30:21 PM 33.1350 -113.9303 99° East 465 535 39,000  Level Albuquerque Center
Wed 10:31:22 PM 33.1133 -113.7769 100° East 468 539 39,000  Level Albuquerque Center
Wed 10:32:23 PM 33.0928 -113.6236 99° East 468 539 39,000  Level Albuquerque Center
Wed 10:33:24 PM 33.0717 -113.4722 99° East 465 535 39,000  Level Albuquerque Center
Wed 10:34:25 PM 33.0497 -113.3197 100° East 466 536 39,000 -537 Level Albuquerque Center
Wed 10:35:27 PM 33.0286 -113.1675 99° East 465 535 37,900 -2,244 Descending Albuquerque Center
Wed 10:36:28 PM 33.0014 -112.9847 100° East 464 534 34,400 -2,754 Descending Albuquerque Center
Wed 10:37:29 PM 32.9800 -112.8308 99° East 469 540 32,300 -2,016 Descending Albuquerque Center
Wed 10:38:30 PM 32.9567 -112.6825 101° East 459 528 30,300 -2,000 Descending Albuquerque Center
Wed 10:39:32 PM 32.9114 -112.5556 113° Southeast 422 486 28,200 -1,707 Descending Albuquerque Center
Wed 10:40:33 PM 32.8633 -112.4322 115° Southeast 411 473 26,800 -1,525 Descending Albuquerque Center
Wed 10:41:34 PM 32.8161 -112.3081 114° Southeast 409 471 25,100 -1,869 Descending Albuquerque Center
Wed 10:42:35 PM 32.7647 -112.1756 115° Southeast 412 474 23,000 -2,049 Descending Albuquerque Center
Wed 10:43:37 PM 32.7169 -112.0531 115° Southeast 411 473 20,900 -2,098 Descending Albuquerque Center
Wed 10:44:38 PM 32.6706 -111.9342 115° Southeast 403 464 18,700 -2,164 Descending Albuquerque Center
Wed 10:45:39 PM 32.6256 -111.8172 115° Southeast 395 455 16,500 -1,846 Descending Albuquerque Center
Wed 10:46:09 PM 32.6003 -111.7606 118° Southeast 386 444 15,900 -1,667 Descending Albuquerque Center
Wed 10:46:51 PM 32.5658 -111.6811 117° Southeast 361 415 14,500 -1,806 Descending Albuquerque Center
Wed 10:47:42 PM 32.5311 -111.6183 123° Southeast 345 397 13,100 -1,607 Descending Albuquerque Center
Wed 10:48:43 PM 32.4767 -111.5294 126° Southeast 336 387 11,500 -1,481 Descending Albuquerque Center
Wed 10:48:59 PM 32.4542 -111.4986 131° Southeast 329 379 11,200 -984 Descending Albuquerque Center
Wed 10:49:44 PM 32.4217 -111.4525 130° Southeast 316 364 10,500 -1,100 Descending Albuquerque Center
Wed 10:49:59 PM 32.3994 -111.4247 133° Southeast 301 346 10,100 -885 Descending Albuquerque Center
Wed 10:50:45 PM 32.3697 -111.3828 130° Southeast 292 336 9,600 -944 Descending Albuquerque Center
Wed 10:51:47 PM 32.3014 -111.3169 141° Southeast 269 310 8,400 -738 Descending Albuquerque Center
Wed 10:52:55 PM 32.2336 -111.2522 141° Southeast 263 303 8,000 -197 Descending Albuquerque Center
Wed 10:53:49 PM 32.1892 -111.2069 139° Southeast 264 304 8,000 -157 Level Albuquerque Center
Wed 10:54:50 PM 32.1322 -111.1508 140° Southeast 265 305 7,700 -488 Descending Albuquerque Center
Wed 10:55:52 PM 32.0792 -111.0964 139° Southeast 261 300 7,000 -634 Descending Albuquerque Center
Wed 10:56:53 PM 32.0389 -111.0456 133° Southeast 234 269 6,400 -885 Descending Albuquerque Center
Wed 10:57:54 PM 32.0181 -110.9861 112° Southeast 208 239 5,200 -689 Descending Albuquerque Center
Wed 10:58:55 PM 31.9969 -110.9267 113° Southeast 200 230 5,000 -480 Descending Albuquerque Center
Wed 10:59:59 PM 32.0422 -110.8858 37° Northeast 173 199 4,200 -864 Descending Albuquerque Center
Wed 11:01:00 PM 32.0811 -110.8981 345° North 155 178 3,200 -984 Descending Albuquerque Center

Login

Don't have an account? Register now (free) for customized features, flight alerts, and more!